createdAt,value
2023-10-23T00:00:04.774Z,73.34
2023-10-23T00:02:39.546Z,72.86
2023-10-23T00:05:12.025Z,72.60
2023-10-23T00:07:43.662Z,73.47
2023-10-23T00:10:15.641Z,74.16
2023-10-23T00:12:48.430Z,73.48
2023-10-23T00:15:20.186Z,74.17
2023-10-23T00:17:51.732Z,74.29
2023-10-23T00:20:23.646Z,74.13
2023-10-23T00:22:55.339Z,74.37
2023-10-23T00:25:26.853Z,75.10
2023-10-23T00:27:58.393Z,75.65
2023-10-23T00:30:33.417Z,75.04
2023-10-23T00:33:05.348Z,74.55
2023-10-23T00:35:38.196Z,75.34
2023-10-23T00:38:10.587Z,73.94
2023-10-23T00:40:42.315Z,73.05
2023-10-23T00:43:22.448Z,73.46
2023-10-23T00:45:57.860Z,73.66
2023-10-23T00:48:30.176Z,73.51
2023-10-23T00:51:03.301Z,72.76
2023-10-23T00:53:37.620Z,74.54
2023-10-23T00:56:11.626Z,74.51
2023-10-23T00:58:44.708Z,73.73
2023-10-23T01:01:16.883Z,72.14
2023-10-23T01:03:48.746Z,70.45
2023-10-23T01:06:20.474Z,70.26
2023-10-23T01:08:52.166Z,71.42
2023-10-23T01:11:24.045Z,71.90
2023-10-23T01:13:56.065Z,71.90
2023-10-23T01:16:27.792Z,71.96
2023-10-23T01:18:59.268Z,72.54
2023-10-23T01:21:30.988Z,72.15
2023-10-23T01:24:08.079Z,71.81
2023-10-23T01:26:39.650Z,72.09
2023-10-23T01:29:11.259Z,72.59
2023-10-23T01:31:43.144Z,72.46
2023-10-23T01:34:14.824Z,73.58
2023-10-23T01:36:46.687Z,74.17
2023-10-23T01:39:18.222Z,75.13
2023-10-23T01:41:49.896Z,74.02
2023-10-23T01:44:21.600Z,74.70
2023-10-23T01:46:53.231Z,75.32
2023-10-23T01:49:24.826Z,74.28
2023-10-23T01:51:57.351Z,73.87
2023-10-23T01:54:29.049Z,73.28
2023-10-23T01:57:01.682Z,73.97
2023-10-23T01:59:33.231Z,72.62
2023-10-23T02:02:05.096Z,70.63
2023-10-23T02:04:38.061Z,70.56
2023-10-23T02:07:10.061Z,71.51
2023-10-23T02:09:41.627Z,71.66
2023-10-23T02:12:13.231Z,71.73
2023-10-23T02:14:45.087Z,71.84
2023-10-23T02:17:17.544Z,70.27
2023-10-23T02:19:49.236Z,69.77
2023-10-23T02:22:21.298Z,70.76
2023-10-23T02:24:53.438Z,70.99
2023-10-23T02:27:25.174Z,71.28
2023-10-23T02:29:56.726Z,71.21
2023-10-23T02:32:28.295Z,71.45
2023-10-23T02:35:00.173Z,71.59
2023-10-23T02:37:32.208Z,70.81
2023-10-23T02:40:05.128Z,70.27
2023-10-23T02:42:36.956Z,69.25
2023-10-23T02:45:11.504Z,69.45
2023-10-23T02:47:43.318Z,70.28
2023-10-23T02:50:15.642Z,70.76
2023-10-23T02:52:47.315Z,70.33
2023-10-23T02:55:19.212Z,70.81
2023-10-23T02:57:51.203Z,71.13
2023-10-23T03:00:23.644Z,71.16
2023-10-23T03:02:55.558Z,71.68
2023-10-23T03:05:27.626Z,71.36
2023-10-23T03:07:59.851Z,71.96
2023-10-23T03:10:31.456Z,70.94
2023-10-23T03:13:04.031Z,71.06
2023-10-23T03:15:37.422Z,70.53
2023-10-23T03:18:09.568Z,70.46
2023-10-23T03:20:42.045Z,71.08
2023-10-23T03:23:13.564Z,70.81
2023-10-23T03:25:47.022Z,70.76
2023-10-23T03:28:18.551Z,71.29
2023-10-23T03:30:50.073Z,71.82
2023-10-23T03:33:21.982Z,71.74
2023-10-23T03:35:53.609Z,71.52
2023-10-23T03:38:25.472Z,71.62
2023-10-23T03:41:01.564Z,72.65
2023-10-23T03:43:33.702Z,72.14
2023-10-23T03:46:08.664Z,74.10
2023-10-23T03:48:41.032Z,74.58
2023-10-23T03:51:13.019Z,74.48
2023-10-23T03:53:44.944Z,73.10
2023-10-23T03:56:16.378Z,73.47
2023-10-23T03:58:48.602Z,73.43
2023-10-23T04:01:20.153Z,71.87
2023-10-23T04:03:51.924Z,72.17
2023-10-23T04:06:23.522Z,71.83
2023-10-23T04:08:55.966Z,71.11
2023-10-23T04:11:27.621Z,71.83
2023-10-23T04:13:59.137Z,71.78
2023-10-23T04:16:30.726Z,71.48
2023-10-23T04:19:02.486Z,72.46
2023-10-23T04:21:40.138Z,73.30
2023-10-23T04:24:12.596Z,72.41
2023-10-23T04:26:44.171Z,72.32
2023-10-23T04:29:15.992Z,73.03
2023-10-23T04:31:47.597Z,72.52
2023-10-23T04:34:19.088Z,72.47
2023-10-23T04:36:51.163Z,73.92
2023-10-23T04:39:22.988Z,74.22
2023-10-23T04:41:54.726Z,73.11
2023-10-23T04:44:26.693Z,71.68
2023-10-23T04:46:58.308Z,70.88
2023-10-23T04:49:29.901Z,71.22
2023-10-23T04:52:01.378Z,71.32
2023-10-23T04:54:33.032Z,71.81
2023-10-23T04:57:05.377Z,70.76
2023-10-23T04:59:39.130Z,70.35
2023-10-23T05:02:11.109Z,69.90
2023-10-23T05:04:42.770Z,68.91
2023-10-23T05:07:16.144Z,69.81
2023-10-23T05:09:47.846Z,70.35
2023-10-23T05:12:19.417Z,70.35
2023-10-23T05:14:52.204Z,70.44
2023-10-23T05:17:25.309Z,69.51
2023-10-23T05:19:57.086Z,69.12
2023-10-23T05:22:28.749Z,69.66
2023-10-23T05:25:00.397Z,70.29
2023-10-23T05:27:32.106Z,69.35
2023-10-23T05:30:05.173Z,69.25
2023-10-23T05:32:39.005Z,69.07
2023-10-23T05:35:15.822Z,70.24
2023-10-23T05:37:47.809Z,70.85
2023-10-23T05:40:20.049Z,70.39
2023-10-23T05:42:51.631Z,70.09
2023-10-23T05:45:23.622Z,71.30
2023-10-23T05:47:55.143Z,71.21
2023-10-23T05:50:26.883Z,70.63
2023-10-23T05:52:58.730Z,69.79
2023-10-23T05:55:30.260Z,68.85
2023-10-23T05:58:01.856Z,69.43
2023-10-23T06:00:34.067Z,70.13
2023-10-23T06:03:05.856Z,70.92
2023-10-23T06:05:43.186Z,70.53
2023-10-23T06:08:14.746Z,69.77
2023-10-23T06:10:47.210Z,71.08
2023-10-23T06:13:18.784Z,70.93
2023-10-23T06:15:50.575Z,70.75
2023-10-23T06:18:22.149Z,70.26
2023-10-23T06:21:04.545Z,70.12
2023-10-23T06:23:38.606Z,70.84
2023-10-23T06:26:11.206Z,71.09
2023-10-23T06:28:42.695Z,70.59
2023-10-23T06:31:14.965Z,70.35
2023-10-23T06:33:48.085Z,70.37
2023-10-23T06:36:19.742Z,71.07
2023-10-23T06:38:51.866Z,69.68
2023-10-23T06:41:24.065Z,69.47
2023-10-23T06:43:56.715Z,69.50
2023-10-23T06:46:28.360Z,69.40
2023-10-23T06:49:00.157Z,68.91
2023-10-23T06:51:31.948Z,67.73
2023-10-23T06:54:05.227Z,67.65
2023-10-23T06:56:37.137Z,68.26
2023-10-23T06:59:08.759Z,69.10
2023-10-23T07:01:45.005Z,68.98
2023-10-23T07:04:17.232Z,69.03
2023-10-23T07:06:49.022Z,69.43
2023-10-23T07:09:20.719Z,69.49
2023-10-23T07:11:53.230Z,69.28
2023-10-23T07:14:24.779Z,68.61
2023-10-23T07:16:56.223Z,68.22
2023-10-23T07:19:27.944Z,69.15
2023-10-23T07:22:00.001Z,69.06
2023-10-23T07:24:31.727Z,68.84
2023-10-23T07:27:03.962Z,68.85
2023-10-23T07:29:35.786Z,69.45
2023-10-23T07:32:08.913Z,68.80
2023-10-23T07:34:40.945Z,69.18
2023-10-23T07:37:13.517Z,69.85
2023-10-23T07:39:48.580Z,69.16
2023-10-23T07:42:20.629Z,68.45
2023-10-23T07:44:52.578Z,69.56
2023-10-23T07:47:24.257Z,69.46
2023-10-23T07:49:56.251Z,68.75
2023-10-23T07:52:28.183Z,69.38
2023-10-23T07:55:01.079Z,69.30
2023-10-23T07:57:34.123Z,69.51
2023-10-23T08:00:07.318Z,69.45
2023-10-23T08:02:39.694Z,70.82
2023-10-23T08:05:13.005Z,70.99
2023-10-23T08:07:44.671Z,70.51
2023-10-23T08:10:16.811Z,71.38
2023-10-23T08:12:49.109Z,71.09
2023-10-23T08:15:21.286Z,70.35
2023-10-23T08:17:53.385Z,70.03
2023-10-23T08:20:25.397Z,69.50
2023-10-23T08:22:57.179Z,69.11
2023-10-23T08:25:28.966Z,67.69
2023-10-23T08:28:00.982Z,67.13
2023-10-23T08:30:32.651Z,67.09
2023-10-23T08:33:06.438Z,65.75
2023-10-23T08:35:38.403Z,66.12
2023-10-23T08:38:10.026Z,66.49
2023-10-23T08:40:42.013Z,66.44
2023-10-23T08:43:14.074Z,66.06
2023-10-23T08:45:48.698Z,65.40
2023-10-23T08:48:20.281Z,66.33
2023-10-23T08:50:53.101Z,67.19
2023-10-23T08:53:32.560Z,65.79
2023-10-23T08:56:06.671Z,63.90
2023-10-23T08:58:40.342Z,64.72
2023-10-23T09:01:11.954Z,64.56
2023-10-23T09:04:03.540Z,63.95
2023-10-23T09:06:37.186Z,61.83
2023-10-23T09:09:10.148Z,62.07
2023-10-23T09:11:44.650Z,61.57
2023-10-23T09:14:26.488Z,62.16
2023-10-23T09:17:00.646Z,61.45
2023-10-23T09:19:35.851Z,61.45
2023-10-23T09:22:08.871Z,61.40
2023-10-23T09:24:41.203Z,60.72
2023-10-23T09:27:12.963Z,57.60
2023-10-23T09:29:44.540Z,56.54
2023-10-23T09:32:17.227Z,50.04
2023-10-23T09:34:49.083Z,48.73
2023-10-23T09:37:21.160Z,45.22
2023-10-23T09:39:54.941Z,42.73
2023-10-23T09:42:34.662Z,38.28
2023-10-23T09:45:08.691Z,38.33
2023-10-23T09:47:41.475Z,36.42
2023-10-23T09:50:14.273Z,36.10
2023-10-23T09:52:46.952Z,33.44
2023-10-23T09:55:21.342Z,32.43
2023-10-23T09:57:55.737Z,31.95
2023-10-23T10:00:29.808Z,33.67
2023-10-23T10:03:06.220Z,30.89
2023-10-23T10:05:46.638Z,31.34
2023-10-23T10:08:20.998Z,31.57
2023-10-23T10:10:53.729Z,31.21
2023-10-23T10:13:27.285Z,31.09
2023-10-23T10:16:00.696Z,32.31
2023-10-23T10:18:34.319Z,31.57
2023-10-23T10:21:12.111Z,32.48
2023-10-23T10:23:44.731Z,33.67
2023-10-23T10:26:16.855Z,36.07
2023-10-23T10:28:56.498Z,36.05
2023-10-23T10:31:29.306Z,36.44
2023-10-23T10:34:27.132Z,37.56
2023-10-23T10:36:54.005Z,38.30
2023-10-23T10:39:54.371Z,37.67
2023-10-23T10:42:27.745Z,38.69
2023-10-23T10:45:01.444Z,38.87
2023-10-23T10:47:40.917Z,38.81
2023-10-23T10:50:13.424Z,38.72
2023-10-23T10:52:46.988Z,38.38
2023-10-23T10:55:19.396Z,38.85
2023-10-23T10:57:51.492Z,39.24
2023-10-23T11:00:24.455Z,40.18
2023-10-23T11:02:57.956Z,40.51
2023-10-23T11:05:30.074Z,41.66
2023-10-23T11:08:02.154Z,41.77
2023-10-23T11:10:34.369Z,42.16
2023-10-23T11:13:07.717Z,42.10
2023-10-23T11:15:39.508Z,41.93
2023-10-23T11:18:11.660Z,41.44
2023-10-23T11:20:43.277Z,40.53
2023-10-23T11:23:19.282Z,40.58
2023-10-23T11:25:55.756Z,40.58
2023-10-23T11:28:28.301Z,40.75
2023-10-23T11:31:01.652Z,40.75
2023-10-23T11:33:33.382Z,41.77
2023-10-23T11:36:08.626Z,42.43
2023-10-23T11:38:41.324Z,42.88
2023-10-23T11:41:13.810Z,43.21
2023-10-23T11:43:46.365Z,43.42
2023-10-23T11:46:18.087Z,44.03
2023-10-23T11:48:51.382Z,44.29
2023-10-23T11:51:23.784Z,44.32
2023-10-23T11:53:57.378Z,44.39
2023-10-23T11:56:33.726Z,44.72
2023-10-23T11:59:05.867Z,45.17
2023-10-23T12:01:37.758Z,45.24
2023-10-23T12:04:10.113Z,45.64
2023-10-23T12:06:42.784Z,45.92
2023-10-23T12:09:15.065Z,46.16
2023-10-23T12:11:46.745Z,45.94
2023-10-23T12:14:18.305Z,46.56
2023-10-23T12:16:50.014Z,47.09
2023-10-23T12:19:22.214Z,46.64
2023-10-23T12:21:54.090Z,46.86
2023-10-23T12:24:26.392Z,47.45
2023-10-23T12:26:59.214Z,47.55
2023-10-23T12:29:31.376Z,47.35
2023-10-23T12:32:05.599Z,46.82
2023-10-23T12:34:38.009Z,46.74
2023-10-23T12:37:09.832Z,46.70
2023-10-23T12:39:41.673Z,46.99
2023-10-23T12:42:13.278Z,47.90
2023-10-23T12:44:46.191Z,48.11
2023-10-23T12:47:18.313Z,47.92
2023-10-23T12:49:50.563Z,48.13
2023-10-23T12:52:22.255Z,47.94
2023-10-23T12:54:53.903Z,47.76
2023-10-23T12:57:25.745Z,47.66
2023-10-23T12:59:57.700Z,47.79
2023-10-23T13:02:29.656Z,47.87
2023-10-23T13:05:02.021Z,48.07
2023-10-23T13:07:33.897Z,48.57
2023-10-23T13:10:06.933Z,48.03
2023-10-23T13:12:38.926Z,47.75
2023-10-23T13:15:11.740Z,47.28
2023-10-23T13:17:43.463Z,47.37
2023-10-23T13:21:27.343Z,47.09
2023-10-23T13:23:09.768Z,47.55
2023-10-23T13:25:42.221Z,47.81
2023-10-23T13:28:14.499Z,47.84
2023-10-23T13:30:46.542Z,47.88
2023-10-23T13:33:19.553Z,47.81
2023-10-23T13:35:51.258Z,47.92
2023-10-23T13:38:23.050Z,47.94
2023-10-23T13:40:57.225Z,47.81
2023-10-23T13:43:29.200Z,48.41
2023-10-23T13:46:01.467Z,48.75
2023-10-23T13:48:33.280Z,48.75
2023-10-23T13:51:05.721Z,48.21
2023-10-23T13:53:38.180Z,48.55
2023-10-23T13:56:10.644Z,48.62
2023-10-23T13:58:42.218Z,48.69
2023-10-23T14:01:14.062Z,48.98
2023-10-23T14:03:46.107Z,49.74
2023-10-23T14:06:19.045Z,49.22
2023-10-23T14:09:42.900Z,49.85
2023-10-23T14:11:59.496Z,51.11
2023-10-23T14:14:33.201Z,51.48
2023-10-23T14:17:05.223Z,51.35
2023-10-23T14:19:46.543Z,51.20
2023-10-23T14:22:20.418Z,51.47
2023-10-23T14:24:52.305Z,51.04
2023-10-23T14:27:24.095Z,51.71
2023-10-23T14:29:55.802Z,52.37
2023-10-23T14:32:27.977Z,52.78
2023-10-23T14:35:00.453Z,51.88
2023-10-23T14:37:32.241Z,53.20
2023-10-23T14:40:04.545Z,52.35
2023-10-23T14:42:36.455Z,52.63
2023-10-23T14:45:10.063Z,53.45
2023-10-23T14:47:42.180Z,53.45
2023-10-23T14:50:14.427Z,51.89
2023-10-23T14:52:46.512Z,52.35
2023-10-23T14:55:18.498Z,52.90
2023-10-23T14:57:50.254Z,52.71
2023-10-23T15:00:22.600Z,52.39
2023-10-23T15:02:54.337Z,51.92
2023-10-23T15:05:26.123Z,52.01
2023-10-23T15:07:57.837Z,51.80
2023-10-23T15:10:29.326Z,52.17
2023-10-23T15:13:01.221Z,52.37
2023-10-23T15:15:34.858Z,52.60
2023-10-23T15:18:06.887Z,53.30
2023-10-23T15:20:38.947Z,52.87
2023-10-23T15:23:10.895Z,53.22
2023-10-23T15:25:43.580Z,53.02
2023-10-23T15:28:15.548Z,53.24
2023-10-23T15:30:54.702Z,53.16
2023-10-23T15:33:27.350Z,53.08
2023-10-23T15:36:02.458Z,53.07
2023-10-23T15:38:35.463Z,53.26
2023-10-23T15:41:10.000Z,53.94
2023-10-23T15:43:44.462Z,54.47
2023-10-23T15:46:17.475Z,53.83
2023-10-23T15:48:49.763Z,54.03
2023-10-23T15:51:21.501Z,55.46
2023-10-23T15:53:54.041Z,54.28
2023-10-23T15:56:26.124Z,55.08
2023-10-23T15:58:57.883Z,55.75
2023-10-23T16:01:29.845Z,56.98
2023-10-23T16:04:02.137Z,56.70
2023-10-23T16:06:42.367Z,55.82
2023-10-23T16:09:22.016Z,55.04
2023-10-23T16:12:09.853Z,55.67
2023-10-23T16:14:55.790Z,56.42
2023-10-23T16:17:29.361Z,56.37
2023-10-23T16:20:01.348Z,56.85
2023-10-23T16:22:33.176Z,56.90
2023-10-23T16:25:07.073Z,57.72
2023-10-23T16:27:39.042Z,57.82
2023-10-23T16:30:12.219Z,58.35
2023-10-23T16:32:46.170Z,58.13
2023-10-23T16:35:18.246Z,57.86
2023-10-23T16:37:50.363Z,57.98
2023-10-23T16:40:22.999Z,59.11
2023-10-23T16:42:55.263Z,60.18
2023-10-23T16:45:28.936Z,61.98
2023-10-23T16:48:01.292Z,62.00
2023-10-23T16:50:33.298Z,61.78
2023-10-23T16:53:05.867Z,61.63
2023-10-23T16:55:38.189Z,59.37
2023-10-23T16:58:10.128Z,59.67
2023-10-23T17:00:42.022Z,60.04
2023-10-23T17:03:14.059Z,60.76
2023-10-23T17:05:46.113Z,60.62
2023-10-23T17:08:19.442Z,60.34
2023-10-23T17:10:52.109Z,61.74
2023-10-23T17:13:24.195Z,60.36
2023-10-23T17:15:57.093Z,61.35
2023-10-23T17:18:29.064Z,61.76
2023-10-23T17:21:03.475Z,61.96
2023-10-23T17:23:35.876Z,61.32
2023-10-23T17:26:07.865Z,61.16
2023-10-23T17:28:40.072Z,61.02
2023-10-23T17:31:12.014Z,61.51
2023-10-23T17:33:44.011Z,61.27
2023-10-23T17:36:16.033Z,60.80
2023-10-23T17:38:47.828Z,60.92
2023-10-23T17:41:20.853Z,62.59
2023-10-23T17:43:53.123Z,61.45
2023-10-23T17:46:25.403Z,63.97
2023-10-23T17:48:57.256Z,65.31
2023-10-23T17:51:29.577Z,63.79
2023-10-23T17:54:05.973Z,65.32
2023-10-23T17:56:38.760Z,65.69
2023-10-23T17:59:10.876Z,64.85
2023-10-23T18:01:45.248Z,65.14
2023-10-23T18:04:17.245Z,64.84
2023-10-23T18:06:49.273Z,65.43
2023-10-23T18:09:21.644Z,66.44
2023-10-23T18:11:53.526Z,64.71
2023-10-23T18:14:25.995Z,66.20
2023-10-23T18:16:58.441Z,65.78
2023-10-23T18:19:30.471Z,65.32
2023-10-23T18:22:03.573Z,64.79
2023-10-23T18:24:35.410Z,65.99
2023-10-23T18:27:07.783Z,65.33
2023-10-23T18:29:39.914Z,64.05
2023-10-23T18:32:12.040Z,65.49
2023-10-23T18:34:43.918Z,65.97
2023-10-23T18:37:15.827Z,66.06
2023-10-23T18:39:47.817Z,64.73
2023-10-23T18:42:19.718Z,66.51
2023-10-23T18:44:51.378Z,64.45
2023-10-23T18:47:23.484Z,65.18
2023-10-23T18:49:55.471Z,65.28
2023-10-23T18:52:27.469Z,64.44
2023-10-23T18:54:59.251Z,64.36
2023-10-23T18:57:31.210Z,63.77
2023-10-23T19:00:03.113Z,64.00
2023-10-23T19:02:35.093Z,64.76
2023-10-23T19:05:08.341Z,64.34
2023-10-23T19:07:40.377Z,64.38
2023-10-23T19:10:13.164Z,63.99
2023-10-23T19:12:45.031Z,64.44
2023-10-23T19:15:17.054Z,64.67
2023-10-23T19:17:51.419Z,64.90
2023-10-23T19:20:23.787Z,65.03
2023-10-23T19:22:55.856Z,64.58
2023-10-23T19:25:28.770Z,64.94
2023-10-23T19:28:01.737Z,65.44
2023-10-23T19:30:35.064Z,65.17
2023-10-23T19:33:08.109Z,65.58
2023-10-23T19:35:41.727Z,66.13
2023-10-23T19:38:14.982Z,66.26
2023-10-23T19:40:52.364Z,67.41
2023-10-23T19:43:28.169Z,67.55
2023-10-23T19:46:02.715Z,67.55
2023-10-23T19:48:35.827Z,67.37
2023-10-23T19:51:09.153Z,67.35
2023-10-23T19:53:48.394Z,67.28
2023-10-23T19:56:28.081Z,67.43
2023-10-23T19:59:02.455Z,68.35
2023-10-23T20:01:34.753Z,69.77
2023-10-23T20:04:09.039Z,69.60
2023-10-23T20:06:41.132Z,68.30
2023-10-23T20:09:13.051Z,67.67
2023-10-23T20:11:45.072Z,69.12
2023-10-23T20:14:17.732Z,68.39
2023-10-23T20:16:50.162Z,69.43
2023-10-23T20:19:22.591Z,69.18
2023-10-23T20:21:58.247Z,68.50
2023-10-23T20:24:30.220Z,67.62
2023-10-23T20:27:02.035Z,68.28
2023-10-23T20:29:34.272Z,68.69
2023-10-23T20:32:06.692Z,68.35
2023-10-23T20:34:38.562Z,68.95
2023-10-23T20:37:10.515Z,68.12
2023-10-23T20:39:42.765Z,67.85
2023-10-23T20:42:14.765Z,68.51
2023-10-23T20:44:47.237Z,67.99
2023-10-23T20:47:19.084Z,68.09
2023-10-23T20:49:51.422Z,68.06
2023-10-23T20:52:23.726Z,67.67
2023-10-23T20:54:55.628Z,67.69
2023-10-23T20:57:27.978Z,67.89
2023-10-23T21:00:00.226Z,68.76
2023-10-23T21:02:32.440Z,67.50
2023-10-23T21:05:05.179Z,67.93
2023-10-23T21:07:37.842Z,68.42
2023-10-23T21:10:11.526Z,68.90
2023-10-23T21:12:43.900Z,68.21
2023-10-23T21:15:16.061Z,68.56
2023-10-23T21:17:47.999Z,69.37
2023-10-23T21:20:20.121Z,69.18
2023-10-23T21:22:52.655Z,69.09
2023-10-23T21:25:24.432Z,68.80
2023-10-23T21:27:58.239Z,67.47
2023-10-23T21:30:30.150Z,67.48
2023-10-23T21:33:02.443Z,68.12
2023-10-23T21:35:34.489Z,68.35
2023-10-23T21:38:06.136Z,67.34
2023-10-23T21:40:38.392Z,66.91
2023-10-23T21:43:10.312Z,66.72
2023-10-23T21:45:42.261Z,67.35
2023-10-23T21:48:15.125Z,67.47
2023-10-23T21:50:48.565Z,67.80
2023-10-23T21:53:21.573Z,68.22
2023-10-23T21:55:56.335Z,68.47
2023-10-23T21:59:02.726Z,67.54
2023-10-23T22:01:23.297Z,67.47
2023-10-23T22:03:56.651Z,67.37
2023-10-23T22:06:30.025Z,68.88
2023-10-23T22:09:02.843Z,69.59
2023-10-23T22:11:35.986Z,68.62
2023-10-23T22:14:09.435Z,68.19
2023-10-23T22:16:41.545Z,69.29
2023-10-23T22:19:17.365Z,69.43
2023-10-23T22:21:49.344Z,68.36
2023-10-23T22:24:21.161Z,69.08
2023-10-23T22:26:52.939Z,68.53
2023-10-23T22:29:24.786Z,68.85
2023-10-23T22:31:58.049Z,68.73
2023-10-23T22:34:30.601Z,67.97
2023-10-23T22:37:59.557Z,68.09
2023-10-23T22:39:54.074Z,68.95
2023-10-23T22:42:26.229Z,68.44
2023-10-23T22:44:58.433Z,67.91
2023-10-23T22:47:30.231Z,68.18
2023-10-23T22:50:03.387Z,68.38
2023-10-23T22:52:38.944Z,67.98
2023-10-23T22:55:15.926Z,68.51
2023-10-23T22:57:49.962Z,69.63
2023-10-23T23:00:23.432Z,68.89
2023-10-23T23:02:56.985Z,68.47
2023-10-23T23:05:30.378Z,68.48
2023-10-23T23:08:03.273Z,68.01
2023-10-23T23:10:36.442Z,68.34
2023-10-23T23:13:09.082Z,68.67
2023-10-23T23:15:42.175Z,69.72
2023-10-23T23:18:20.962Z,68.59
2023-10-23T23:20:54.913Z,68.53
2023-10-23T23:23:27.268Z,69.24
2023-10-23T23:25:59.023Z,68.79
2023-10-23T23:28:30.624Z,67.97
2023-10-23T23:31:02.647Z,68.27
2023-10-23T23:33:34.364Z,68.29
2023-10-23T23:36:07.160Z,67.76
2023-10-23T23:38:39.731Z,67.67
2023-10-23T23:41:11.357Z,68.52
2023-10-23T23:43:43.178Z,69.13
2023-10-23T23:46:15.601Z,68.09
2023-10-23T23:48:47.279Z,68.26
2023-10-23T23:51:18.997Z,68.15
2023-10-23T23:53:50.546Z,68.41
2023-10-23T23:56:22.437Z,69.59
2023-10-23T23:58:54.534Z,69.27
